Time;durP1;ratioP1;P1;durP2;ratioP2;P2;SDS_P1;SDS_P2;PMS_P1;PMS_P2;Temp;Humidity;BMP_temperature;BMP_pressure;BME280_temperature;BME280_humidity;BME280_pressure;Samples;Min_cycle;Max_cycle;Signal;HPM_P1;HPM_P2
2022/12/11 00:01:42;;;;;;;45.70;19.47;;;;;;;;;;6276192;22;20153;-75
2022/12/11 00:04:07;;;;;;;42.00;19.67;;;;;;;;;;6276816;22;20499;-75
2022/12/11 00:06:33;;;;;;;45.73;19.70;;;;;;;;;;6276318;22;20227;-76
2022/12/11 00:08:58;;;;;;;35.70;18.30;;;;;;;;;;6303242;22;20144;-75
2022/12/11 00:11:23;;;;;;;40.63;18.70;;;;;;;;;;6303509;22;20153;-75
2022/12/11 00:13:48;;;;;;;42.30;19.73;;;;;;;;;;6277067;22;20166;-75
2022/12/11 00:16:14;;;;;;;35.00;18.27;;;;;;;;;;6275783;22;20146;-75
2022/12/11 00:18:39;;;;;;;32.10;16.90;;;;;;;;;;6276032;22;20521;-76
2022/12/11 00:21:06;;;;;;;31.90;17.07;;;;;;;;;;6277741;22;20596;-75
2022/12/11 00:23:31;;;;;;;32.97;17.03;;;;;;;;;;6277373;22;20217;-75
2022/12/11 00:25:57;;;;;;;47.93;19.60;;;;;;;;;;6277719;22;20389;-75
2022/12/11 00:28:24;;;;;;;35.80;17.63;;;;;;;;;;6276559;22;20633;-75
2022/12/11 00:30:50;;;;;;;34.17;18.07;;;;;;;;;;6304202;22;20629;-75
2022/12/11 00:33:16;;;;;;;40.87;20.10;;;;;;;;;;6305824;22;20371;-75
2022/12/11 00:35:42;;;;;;;40.10;18.80;;;;;;;;;;6278497;22;20149;-75
2022/12/11 00:38:08;;;;;;;40.03;19.03;;;;;;;;;;6278803;22;20408;-75
2022/12/11 00:40:34;;;;;;;35.23;19.20;;;;;;;;;;6306293;22;20360;-75
2022/12/11 00:43:00;;;;;;;33.03;17.10;;;;;;;;;;6278797;22;20154;-75
2022/12/11 00:45:25;;;;;;;32.30;17.40;;;;;;;;;;6276166;22;20720;-75
2022/12/11 00:47:50;;;;;;;33.30;17.37;;;;;;;;;;6304041;22;20189;-75
2022/12/11 00:50:16;;;;;;;27.93;15.73;;;;;;;;;;6304974;22;20173;-75
2022/12/11 00:52:41;;;;;;;31.67;16.60;;;;;;;;;;6276173;22;20149;-75
2022/12/11 00:55:06;;;;;;;30.83;16.80;;;;;;;;;;6277392;22;20154;-75
2022/12/11 00:57:32;;;;;;;35.80;16.90;;;;;;;;;;6303071;22;20239;-75
2022/12/11 00:59:57;;;;;;;34.40;17.93;;;;;;;;;;6302125;22;20181;-75
2022/12/11 01:02:22;;;;;;;33.37;16.47;;;;;;;;;;6302876;22;20168;-75
2022/12/11 01:04:47;;;;;;;35.63;17.10;;;;;;;;;;6274756;22;20153;-76
2022/12/11 01:07:13;;;;;;;37.30;18.43;;;;;;;;;;6273904;22;20285;-75
2022/12/11 01:12:22;;;;;;;34.00;17.60;;;;;;;;;;6303518;22;20177;-75
2022/12/11 01:14:47;;;;;;;31.53;17.60;;;;;;;;;;6303345;22;20368;-75
2022/12/11 01:17:12;;;;;;;34.23;17.40;;;;;;;;;;6274735;22;20174;-75
2022/12/11 01:19:38;;;;;;;38.07;20.30;;;;;;;;;;6302872;22;20618;-74
2022/12/11 01:22:03;;;;;;;36.13;17.10;;;;;;;;;;6274930;22;20186;-74
2022/12/11 01:24:28;;;;;;;34.73;17.53;;;;;;;;;;6276566;22;20221;-75
2022/12/11 01:26:53;;;;;;;35.13;17.60;;;;;;;;;;6275770;22;20189;-76
2022/12/11 01:29:19;;;;;;;34.13;17.87;;;;;;;;;;6302318;22;20146;-76
2022/12/11 01:31:44;;;;;;;36.63;17.83;;;;;;;;;;6275193;22;20188;-74
2022/12/11 01:34:09;;;;;;;30.80;15.80;;;;;;;;;;6277465;22;20146;-75
2022/12/11 01:36:37;;;;;;;31.93;16.63;;;;;;;;;;6279174;22;20146;-75
2022/12/11 01:39:02;;;;;;;30.70;16.07;;;;;;;;;;6279561;22;20516;-75
2022/12/11 01:41:27;;;;;;;28.40;16.50;;;;;;;;;;6306280;22;20364;-75
2022/12/11 01:43:57;;;;;;;32.60;17.10;;;;;;;;;;6279177;22;20228;-75
2022/12/11 01:46:22;;;;;;;28.03;15.27;;;;;;;;;;6277775;22;20161;-75
2022/12/11 01:48:48;;;;;;;32.63;17.37;;;;;;;;;;6305624;22;20392;-75
2022/12/11 01:51:13;;;;;;;36.13;16.50;;;;;;;;;;6306755;22;20593;-76
2022/12/11 01:53:44;;;;;;;33.60;16.10;;;;;;;;;;6279432;22;20172;-75
2022/12/11 01:56:09;;;;;;;34.10;15.63;;;;;;;;;;6278919;22;20154;-74
2022/12/11 01:58:40;;;;;;;31.70;17.33;;;;;;;;;;6277132;22;20450;-75
2022/12/11 02:01:07;;;;;;;30.57;17.30;;;;;;;;;;6278833;22;20146;-75
2022/12/11 02:03:33;;;;;;;28.97;16.53;;;;;;;;;;6279134;22;20859;-75
2022/12/11 02:05:59;;;;;;;35.10;18.60;;;;;;;;;;6276665;22;20369;-75
2022/12/11 02:08:24;;;;;;;32.30;18.80;;;;;;;;;;6306544;22;20184;-75
2022/12/11 02:11:13;;;;;;;29.93;17.13;;;;;;;;;;6278712;22;20373;-74
2022/12/11 02:13:43;;;;;;;26.53;16.07;;;;;;;;;;6286299;22;20150;-75
2022/12/11 02:16:08;;;;;;;27.50;15.93;;;;;;;;;;6277767;22;20356;-75
2022/12/11 02:18:52;;;;;;;29.87;16.73;;;;;;;;;;6276845;22;20727;-75
2022/12/11 02:21:26;;;;;;;26.60;14.77;;;;;;;;;;6278383;22;20637;-75
2022/12/11 02:24:10;;;;;;;34.30;16.50;;;;;;;;;;6277926;22;20380;-74
2022/12/11 02:26:54;;;;;;;36.13;16.03;;;;;;;;;;6307614;22;20491;-75
2022/12/11 02:29:23;;;;;;;28.33;17.23;;;;;;;;;;6307759;22;20368;-74
2022/12/11 02:32:03;;;;;;;25.30;14.60;;;;;;;;;;6307359;22;20364;-75
2022/12/11 02:34:34;;;;;;;22.30;14.10;;;;;;;;;;6306099;22;20367;-75
2022/12/11 02:37:05;;;;;;;27.23;15.73;;;;;;;;;;6305276;22;20393;-75
2022/12/11 02:39:32;;;;;;;25.77;16.10;;;;;;;;;;6276614;22;20443;-74
2022/12/11 02:41:58;;;;;;;25.40;16.37;;;;;;;;;;6303831;22;20396;-73
2022/12/11 02:44:25;;;;;;;25.40;15.60;;;;;;;;;;6274652;22;20727;-73
2022/12/11 02:46:51;;;;;;;31.63;16.37;;;;;;;;;;6276119;22;20186;-73
2022/12/11 02:49:17;;;;;;;29.90;17.40;;;;;;;;;;6303225;22;20359;-73
2022/12/11 02:51:43;;;;;;;27.30;15.47;;;;;;;;;;6303685;22;20892;-73
2022/12/11 02:54:17;;;;;;;25.30;16.20;;;;;;;;;;6276544;22;20372;-72
2022/12/11 02:56:44;;;;;;;25.63;15.67;;;;;;;;;;6303327;22;20207;-72
2022/12/11 02:59:22;;;;;;;26.97;15.77;;;;;;;;;;6304097;22;20361;-72
2022/12/11 03:01:48;;;;;;;25.50;16.00;;;;;;;;;;6275818;22;20379;-73
2022/12/11 03:04:13;;;;;;;20.70;13.13;;;;;;;;;;6301986;22;20357;-72
2022/12/11 03:06:41;;;;;;;20.07;13.20;;;;;;;;;;6273637;22;20185;-73
2022/12/11 03:09:07;;;;;;;21.37;12.20;;;;;;;;;;6274986;22;20559;-73
2022/12/11 03:11:32;;;;;;;22.70;13.57;;;;;;;;;;6303482;22;20352;-73
2022/12/11 03:14:01;;;;;;;22.27;13.40;;;;;;;;;;6302024;22;20203;-73
2022/12/11 03:16:34;;;;;;;21.77;12.50;;;;;;;;;;6278382;22;20531;-72
2022/12/11 03:19:05;;;;;;;23.77;14.40;;;;;;;;;;6276631;22;20368;-73
2022/12/11 03:21:44;;;;;;;21.80;13.90;;;;;;;;;;6304406;22;20706;-73
2022/12/11 03:24:29;;;;;;;20.40;12.43;;;;;;;;;;6277340;22;20383;-73
2022/12/11 03:26:57;;;;;;;25.53;14.20;;;;;;;;;;6306969;22;20425;-73
2022/12/11 03:29:24;;;;;;;23.63;13.40;;;;;;;;;;6305256;22;20476;-73
2022/12/11 03:31:55;;;;;;;23.77;14.77;;;;;;;;;;6277512;22;20368;-73
2022/12/11 03:34:30;;;;;;;24.97;14.10;;;;;;;;;;6278051;22;20367;-73
2022/12/11 03:36:56;;;;;;;22.57;13.53;;;;;;;;;;6276830;22;20439;-73
2022/12/11 03:39:24;;;;;;;23.52;15.95;;;;;;;;;;6276653;22;20365;-73
2022/12/11 03:41:50;;;;;;;22.77;14.17;;;;;;;;;;6304075;22;20149;-73
2022/12/11 03:44:17;;;;;;;23.90;13.10;;;;;;;;;;6277905;22;20718;-73
2022/12/11 03:46:43;;;;;;;20.80;13.00;;;;;;;;;;6303537;22;20881;-73
2022/12/11 03:49:11;;;;;;;24.37;14.37;;;;;;;;;;6300666;22;20695;-73
2022/12/11 03:51:37;;;;;;;24.53;15.13;;;;;;;;;;6303394;22;20363;-73
2022/12/11 03:54:03;;;;;;;24.87;13.97;;;;;;;;;;6305113;22;20384;-72
2022/12/11 03:56:32;;;;;;;21.50;12.83;;;;;;;;;;6276866;22;20146;-73
2022/12/11 03:58:57;;;;;;;21.67;13.33;;;;;;;;;;6276692;22;20616;-74
2022/12/11 04:01:23;;;;;;;25.10;13.70;;;;;;;;;;6304746;22;20452;-73
2022/12/11 04:03:48;;;;;;;27.57;14.13;;;;;;;;;;6303290;22;20138;-73
2022/12/11 04:06:13;;;;;;;24.10;13.07;;;;;;;;;;6277964;22;20149;-73
2022/12/11 04:08:39;;;;;;;23.23;13.40;;;;;;;;;;6276890;22;20185;-73
2022/12/11 04:15:00;;;;;;;21.60;12.57;;;;;;;;;;6303791;22;20164;-73
2022/12/11 04:16:33;;;;;;;18.30;10.67;;;;;;;;;;6304140;22;20360;-73
2022/12/11 04:24:26;;;;;;;17.70;10.60;;;;;;;;;;6303341;22;20424;-73
2022/12/11 04:26:52;;;;;;;16.50;11.23;;;;;;;;;;6274022;22;20451;-73
2022/12/11 04:29:17;;;;;;;19.17;11.07;;;;;;;;;;6273776;22;20157;-72
2022/12/11 04:31:44;;;;;;;20.87;11.50;;;;;;;;;;6274724;22;20181;-73
2022/12/11 04:34:09;;;;;;;20.90;11.93;;;;;;;;;;6273510;22;20154;-72
2022/12/11 04:36:35;;;;;;;14.93;9.87;;;;;;;;;;6300701;22;20459;-73
2022/12/11 04:39:00;;;;;;;16.33;10.27;;;;;;;;;;6299964;22;20138;-72
2022/12/11 04:41:25;;;;;;;16.17;10.17;;;;;;;;;;6302925;22;20149;-73
2022/12/11 04:43:51;;;;;;;15.53;10.23;;;;;;;;;;6299980;22;20148;-73
2022/12/11 04:46:18;;;;;;;18.87;11.07;;;;;;;;;;6300694;22;20146;-73
2022/12/11 04:48:44;;;;;;;18.40;11.80;;;;;;;;;;6301656;22;20204;-73
2022/12/11 04:51:09;;;;;;;16.20;9.97;;;;;;;;;;6301963;22;21127;-73
2022/12/11 04:53:35;;;;;;;19.90;11.70;;;;;;;;;;6273053;22;20232;-73
2022/12/11 04:56:01;;;;;;;15.60;10.43;;;;;;;;;;6301668;22;20934;-72
2022/12/11 04:58:26;;;;;;;18.60;11.50;;;;;;;;;;6272131;22;20173;-73
2022/12/11 05:00:52;;;;;;;19.73;11.37;;;;;;;;;;6304105;22;20145;-73
2022/12/11 05:03:18;;;;;;;18.50;10.40;;;;;;;;;;6277006;22;20181;-73
2022/12/11 05:05:50;;;;;;;21.47;12.10;;;;;;;;;;6303443;22;20217;-73
2022/12/11 05:08:19;;;;;;;19.20;10.97;;;;;;;;;;6274728;22;20189;-73
2022/12/11 05:10:44;;;;;;;16.80;10.30;;;;;;;;;;6276946;22;20372;-72
2022/12/11 05:13:09;;;;;;;18.50;11.47;;;;;;;;;;6302951;22;20364;-72
2022/12/11 05:15:37;;;;;;;19.20;11.20;;;;;;;;;;6275099;22;20157;-73
2022/12/11 05:18:03;;;;;;;17.37;11.00;;;;;;;;;;6275297;22;20226;-73
2022/12/11 05:20:28;;;;;;;18.57;11.70;;;;;;;;;;6303292;22;20803;-73
2022/12/11 05:22:53;;;;;;;23.10;11.20;;;;;;;;;;6274830;22;20164;-73
2022/12/11 05:25:18;;;;;;;18.77;10.60;;;;;;;;;;6275969;22;20192;-73
2022/12/11 05:27:44;;;;;;;19.50;11.20;;;;;;;;;;6275215;22;20208;-73
2022/12/11 05:30:09;;;;;;;17.83;11.37;;;;;;;;;;6303132;22;20145;-73
2022/12/11 05:32:34;;;;;;;16.83;10.50;;;;;;;;;;6304577;22;20652;-72
2022/12/11 05:35:00;;;;;;;18.40;10.50;;;;;;;;;;6304760;22;20146;-73
2022/12/11 05:37:25;;;;;;;14.83;9.50;;;;;;;;;;6277799;22;20511;-73
2022/12/11 05:39:50;;;;;;;15.40;9.60;;;;;;;;;;6305349;22;20199;-73
2022/12/11 05:42:16;;;;;;;17.07;9.87;;;;;;;;;;6306198;22;20142;-72
2022/12/11 05:44:41;;;;;;;18.37;11.50;;;;;;;;;;6278576;22;20153;-72
2022/12/11 05:47:06;;;;;;;20.53;12.23;;;;;;;;;;6305516;22;20213;-73
2022/12/11 05:49:31;;;;;;;22.83;11.60;;;;;;;;;;6305106;22;20130;-73
2022/12/11 05:51:57;;;;;;;19.47;12.10;;;;;;;;;;6305262;22;20224;-73
2022/12/11 05:54:22;;;;;;;18.23;11.20;;;;;;;;;;6305540;22;20149;-72
2022/12/11 05:56:48;;;;;;;22.23;11.00;;;;;;;;;;6277830;22;20149;-72
2022/12/11 05:59:13;;;;;;;20.13;10.50;;;;;;;;;;6277305;22;20553;-72
2022/12/11 06:01:40;;;;;;;17.00;10.20;;;;;;;;;;6275407;22;20377;-73
2022/12/11 06:04:06;;;;;;;18.30;11.10;;;;;;;;;;6303475;22;20146;-72
2022/12/11 06:06:32;;;;;;;19.63;12.00;;;;;;;;;;6299426;22;20373;-72
2022/12/11 06:08:59;;;;;;;20.57;11.37;;;;;;;;;;6275555;22;20472;-73
2022/12/11 06:11:25;;;;;;;20.17;11.70;;;;;;;;;;6274805;22;20379;-73
2022/12/11 06:13:51;;;;;;;18.63;10.70;;;;;;;;;;6300834;22;20390;-72
2022/12/11 06:16:16;;;;;;;22.23;11.97;;;;;;;;;;6274373;22;20462;-73
2022/12/11 06:18:42;;;;;;;19.27;9.87;;;;;;;;;;6300747;22;20384;-73
2022/12/11 06:21:11;;;;;;;19.97;10.90;;;;;;;;;;6301028;22;20154;-73
2022/12/11 06:23:36;;;;;;;22.90;10.60;;;;;;;;;;6273810;22;20386;-73
2022/12/11 06:26:02;;;;;;;19.33;10.83;;;;;;;;;;6273675;22;20376;-72
2022/12/11 06:28:28;;;;;;;19.10;10.80;;;;;;;;;;6302363;22;20522;-73
2022/12/11 06:30:53;;;;;;;18.70;11.20;;;;;;;;;;6302038;22;20375;-73
2022/12/11 06:33:18;;;;;;;16.90;10.37;;;;;;;;;;6304252;22;20486;-73
2022/12/11 06:35:43;;;;;;;16.47;10.17;;;;;;;;;;6302774;22;20191;-73
2022/12/11 06:38:09;;;;;;;16.07;9.90;;;;;;;;;;6300064;22;20781;-73
2022/12/11 06:40:34;;;;;;;17.60;10.37;;;;;;;;;;6302540;22;20227;-73
2022/12/11 06:43:00;;;;;;;19.87;9.97;;;;;;;;;;6272832;22;20153;-73
2022/12/11 06:45:25;;;;;;;16.33;9.40;;;;;;;;;;6300703;22;20150;-73
2022/12/11 06:47:53;;;;;;;19.13;11.90;;;;;;;;;;6273296;22;21112;-73
2022/12/11 06:50:18;;;;;;;19.17;10.77;;;;;;;;;;6302028;22;20138;-73
2022/12/11 06:52:43;;;;;;;16.33;10.57;;;;;;;;;;6300264;22;20390;-73
2022/12/11 06:55:09;;;;;;;19.37;11.33;;;;;;;;;;6274192;22;20150;-73
2022/12/11 06:57:34;;;;;;;16.43;9.93;;;;;;;;;;6300715;22;20248;-73
2022/12/11 06:59:59;;;;;;;20.50;11.37;;;;;;;;;;6301936;22;20146;-73
2022/12/11 07:02:25;;;;;;;16.27;10.50;;;;;;;;;;6273517;22;20495;-73
2022/12/11 07:04:50;;;;;;;21.93;12.10;;;;;;;;;;6274820;22;20182;-72
2022/12/11 07:07:15;;;;;;;23.13;12.33;;;;;;;;;;6298481;22;20877;-73
2022/12/11 07:09:41;;;;;;;17.93;11.50;;;;;;;;;;6271373;22;20189;-72
2022/12/11 07:12:06;;;;;;;20.43;12.57;;;;;;;;;;6300659;22;20501;-73
2022/12/11 07:14:32;;;;;;;20.50;11.90;;;;;;;;;;6300838;22;20203;-73
2022/12/11 07:16:58;;;;;;;24.30;13.57;;;;;;;;;;6301492;22;20212;-72
2022/12/11 07:19:23;;;;;;;20.73;12.87;;;;;;;;;;6274776;22;20271;-73
2022/12/11 07:21:48;;;;;;;24.10;13.70;;;;;;;;;;6300894;22;20295;-73
2022/12/11 07:24:17;;;;;;;26.53;14.80;;;;;;;;;;6273743;22;20161;-72
2022/12/11 07:26:42;;;;;;;32.10;14.90;;;;;;;;;;6273624;22;20154;-72
2022/12/11 07:29:08;;;;;;;25.10;15.27;;;;;;;;;;6300491;22;20362;-73
2022/12/11 07:31:33;;;;;;;24.83;13.67;;;;;;;;;;6274553;22;20160;-72
2022/12/11 07:34:00;;;;;;;23.60;13.23;;;;;;;;;;6272161;22;20856;-72
2022/12/11 07:36:25;;;;;;;25.03;14.20;;;;;;;;;;6301052;22;20192;-73
2022/12/11 07:38:51;;;;;;;25.90;13.83;;;;;;;;;;6300856;22;20854;-72
2022/12/11 07:41:17;;;;;;;32.10;15.07;;;;;;;;;;6301104;22;20146;-73
2022/12/11 07:43:42;;;;;;;24.57;14.80;;;;;;;;;;6301941;22;20708;-73
2022/12/11 07:46:10;;;;;;;29.10;14.67;;;;;;;;;;6301389;22;20146;-73
2022/12/11 07:48:35;;;;;;;24.67;12.90;;;;;;;;;;6299635;22;20266;-73
2022/12/11 07:51:13;;;;;;;26.93;15.30;;;;;;;;;;6276166;22;20373;-73
2022/12/11 07:53:39;;;;;;;24.93;14.63;;;;;;;;;;6276483;22;20152;-74
2022/12/11 07:56:04;;;;;;;27.40;14.77;;;;;;;;;;6304734;22;20447;-73
2022/12/11 07:58:30;;;;;;;26.20;15.47;;;;;;;;;;6277495;22;20180;-73
2022/12/11 08:00:58;;;;;;;23.90;13.23;;;;;;;;;;6276158;22;20150;-73
2022/12/11 08:03:23;;;;;;;25.87;15.43;;;;;;;;;;6305574;22;20150;-73
2022/12/11 08:05:49;;;;;;;26.17;15.00;;;;;;;;;;6304562;22;20731;-73
2022/12/11 08:08:15;;;;;;;26.13;14.03;;;;;;;;;;6303763;22;20416;-72
2022/12/11 08:10:40;;;;;;;27.73;15.17;;;;;;;;;;6276965;22;20442;-73
2022/12/11 08:13:08;;;;;;;24.83;14.63;;;;;;;;;;6276901;22;20146;-73
2022/12/11 08:15:34;;;;;;;26.60;14.17;;;;;;;;;;6304683;22;20146;-73
2022/12/11 08:17:59;;;;;;;27.17;15.10;;;;;;;;;;6276348;22;20396;-72
2022/12/11 08:20:25;;;;;;;25.67;15.80;;;;;;;;;;6276397;22;20369;-73
2022/12/11 08:22:50;;;;;;;25.43;14.40;;;;;;;;;;6305213;22;20150;-73
2022/12/11 08:25:15;;;;;;;24.17;14.00;;;;;;;;;;6299215;22;20195;-73
2022/12/11 08:27:43;;;;;;;28.90;15.20;;;;;;;;;;6299706;22;20575;-73
2022/12/11 08:30:08;;;;;;;30.33;14.30;;;;;;;;;;6302701;22;20150;-73
2022/12/11 08:32:34;;;;;;;24.70;14.40;;;;;;;;;;6274347;22;20463;-72
2022/12/11 08:34:59;;;;;;;29.97;15.00;;;;;;;;;;6305604;22;20511;-73
2022/12/11 08:37:25;;;;;;;25.97;14.90;;;;;;;;;;6302755;22;20157;-73
2022/12/11 08:39:50;;;;;;;28.43;13.97;;;;;;;;;;6274394;22;20149;-73
2022/12/11 08:42:15;;;;;;;28.27;15.33;;;;;;;;;;6275724;22;20153;-73
2022/12/11 08:44:40;;;;;;;28.13;15.10;;;;;;;;;;6274519;22;20734;-74
2022/12/11 08:47:08;;;;;;;28.50;16.50;;;;;;;;;;6302573;22;20177;-73
2022/12/11 08:49:34;;;;;;;23.37;13.87;;;;;;;;;;6301976;22;20122;-73
2022/12/11 08:51:59;;;;;;;27.03;15.33;;;;;;;;;;6303429;22;20382;-75
2022/12/11 08:54:25;;;;;;;26.20;14.10;;;;;;;;;;6276156;22;20169;-75
2022/12/11 08:56:50;;;;;;;32.53;16.03;;;;;;;;;;6275631;22;20228;-77
2022/12/11 08:59:15;;;;;;;31.30;15.70;;;;;;;;;;6275849;22;20158;-76
2022/12/11 09:01:41;;;;;;;26.03;14.93;;;;;;;;;;6277028;22;20154;-75
2022/12/11 09:04:06;;;;;;;27.37;15.27;;;;;;;;;;6276793;22;20507;-75
2022/12/11 09:06:32;;;;;;;25.73;13.87;;;;;;;;;;6304868;22;20151;-75
2022/12/11 09:08:58;;;;;;;24.00;13.50;;;;;;;;;;6303758;22;20242;-76
2022/12/11 09:11:26;;;;;;;27.07;15.10;;;;;;;;;;6276734;22;20146;-74
2022/12/11 09:13:52;;;;;;;23.13;13.20;;;;;;;;;;6302185;22;21082;-74
2022/12/11 09:16:18;;;;;;;23.87;14.10;;;;;;;;;;6275382;22;20368;-75
2022/12/11 09:18:44;;;;;;;30.83;15.60;;;;;;;;;;6302745;22;20381;-75
2022/12/11 09:21:12;;;;;;;31.83;15.77;;;;;;;;;;6303168;22;21075;-73
2022/12/11 09:23:37;;;;;;;28.40;14.73;;;;;;;;;;6277528;22;21333;-75
2022/12/11 09:26:04;;;;;;;24.60;14.40;;;;;;;;;;6276957;22;20407;-73
2022/12/11 09:28:30;;;;;;;25.40;14.37;;;;;;;;;;6303592;22;20178;-74
2022/12/11 09:30:55;;;;;;;29.63;14.93;;;;;;;;;;6276505;22;20387;-74
2022/12/11 09:33:21;;;;;;;25.27;13.40;;;;;;;;;;6303460;22;20165;-74
2022/12/11 09:35:55;;;;;;;28.10;15.50;;;;;;;;;;6304169;22;20607;-73
2022/12/11 09:38:20;;;;;;;28.87;15.73;;;;;;;;;;6274564;22;20173;-75
2022/12/11 09:40:45;;;;;;;27.27;14.00;;;;;;;;;;6277248;22;20376;-75
2022/12/11 09:43:14;;;;;;;27.90;14.87;;;;;;;;;;6303225;22;20149;-74
2022/12/11 09:45:39;;;;;;;19.40;12.77;;;;;;;;;;6304875;22;20608;-75
2022/12/11 09:48:06;;;;;;;24.40;13.43;;;;;;;;;;6274901;22;20453;-75
2022/12/11 09:50:32;;;;;;;22.07;13.50;;;;;;;;;;6303727;22;20658;-76
2022/12/11 09:53:11;;;;;;;23.60;14.13;;;;;;;;;;6305265;22;20368;-75
2022/12/11 09:55:45;;;;;;;25.80;13.57;;;;;;;;;;6306019;22;20853;-75
2022/12/11 09:58:19;;;;;;;24.63;13.23;;;;;;;;;;6305076;22;20392;-75
2022/12/11 10:00:45;;;;;;;28.07;13.10;;;;;;;;;;6304012;22;20481;-76
2022/12/11 10:03:21;;;;;;;23.50;13.50;;;;;;;;;;6305263;22;20828;-77
2022/12/11 10:05:46;;;;;;;29.87;14.90;;;;;;;;;;6303323;22;20271;-77
2022/12/11 10:08:24;;;;;;;22.10;12.57;;;;;;;;;;6302057;22;20447;-75
2022/12/11 10:10:49;;;;;;;25.00;13.43;;;;;;;;;;6303351;22;20205;-76
2022/12/11 10:13:27;;;;;;;21.83;13.10;;;;;;;;;;6302844;22;20437;-75
2022/12/11 10:15:58;;;;;;;23.37;14.33;;;;;;;;;;6275656;22;20172;-76
2022/12/11 10:18:25;;;;;;;26.90;14.73;;;;;;;;;;6303117;22;20380;-75
2022/12/11 10:20:51;;;;;;;26.80;14.37;;;;;;;;;;6302322;22;20369;-75
2022/12/11 10:23:23;;;;;;;24.00;13.57;;;;;;;;;;6275911;22;20383;-76
2022/12/11 10:25:57;;;;;;;25.17;13.20;;;;;;;;;;6303354;22;20353;-76
2022/12/11 10:28:22;;;;;;;24.93;12.97;;;;;;;;;;6299857;22;20419;-76
2022/12/11 10:30:50;;;;;;;24.70;13.47;;;;;;;;;;6275088;22;20372;-76
2022/12/11 10:33:27;;;;;;;20.83;12.63;;;;;;;;;;6303068;22;20138;-78
2022/12/11 10:35:57;;;;;;;21.60;12.87;;;;;;;;;;6275131;22;20356;-76
2022/12/11 10:38:28;;;;;;;26.17;15.10;;;;;;;;;;6302528;22;20392;-76
2022/12/11 10:40:56;;;;;;;25.40;14.57;;;;;;;;;;6277058;22;20383;-75
2022/12/11 10:43:31;;;;;;;25.13;14.80;;;;;;;;;;6274062;22;20382;-76
2022/12/11 10:45:56;;;;;;;29.70;15.80;;;;;;;;;;6276047;22;20374;-76
2022/12/11 10:48:22;;;;;;;21.10;13.43;;;;;;;;;;6301917;22;20838;-75
2022/12/11 10:50:55;;;;;;;34.83;15.50;;;;;;;;;;6302995;22;20173;-75
2022/12/11 10:53:21;;;;;;;26.90;15.23;;;;;;;;;;6303317;22;20198;-75
2022/12/11 10:55:47;;;;;;;27.47;14.37;;;;;;;;;;6276299;22;20402;-77
2022/12/11 10:58:23;;;;;;;25.37;13.33;;;;;;;;;;6275425;22;20162;-76
2022/12/11 11:01:14;;;;;;;24.77;13.83;;;;;;;;;;6275970;22;20161;-77
2022/12/11 11:03:50;;;;;;;23.53;13.47;;;;;;;;;;6273680;22;20376;-75
2022/12/11 11:06:16;;;;;;;23.57;14.40;;;;;;;;;;6275972;22;20372;-75
2022/12/11 11:08:43;;;;;;;29.10;15.70;;;;;;;;;;6299060;22;20446;-75
2022/12/11 11:11:23;;;;;;;26.47;13.87;;;;;;;;;;6274925;22;20858;-75
2022/12/11 11:13:48;;;;;;;22.43;13.13;;;;;;;;;;6275802;22;20424;-75
2022/12/11 11:16:15;;;;;;;25.40;13.00;;;;;;;;;;6275593;22;20372;-76
2022/12/11 11:18:40;;;;;;;26.73;15.53;;;;;;;;;;6301786;22;20509;-76
2022/12/11 11:21:06;;;;;;;25.50;14.50;;;;;;;;;;6304395;22;20364;-76
2022/12/11 11:23:33;;;;;;;26.53;15.47;;;;;;;;;;6303885;22;20157;-74
2022/12/11 11:25:59;;;;;;;24.67;14.50;;;;;;;;;;6275198;22;20161;-75
2022/12/11 11:28:36;;;;;;;27.10;14.40;;;;;;;;;;6302089;22;20420;-75
2022/12/11 11:31:06;;;;;;;23.93;15.17;;;;;;;;;;6275584;22;20468;-76
2022/12/11 11:33:33;;;;;;;31.63;14.60;;;;;;;;;;6275779;22;20372;-75
2022/12/11 11:36:01;;;;;;;29.83;14.70;;;;;;;;;;6274638;22;20821;-74
2022/12/11 11:38:42;;;;;;;24.93;14.40;;;;;;;;;;6300678;22;20388;-76
2022/12/11 11:41:08;;;;;;;22.67;13.83;;;;;;;;;;6300528;22;20399;-74
2022/12/11 11:43:42;;;;;;;24.23;14.40;;;;;;;;;;6273762;22;20376;-76
2022/12/11 11:46:15;;;;;;;23.87;13.77;;;;;;;;;;6273511;22;20501;-76
2022/12/11 11:48:59;;;;;;;28.00;15.63;;;;;;;;;;6300409;22;20849;-76
2022/12/11 11:51:24;;;;;;;25.63;13.63;;;;;;;;;;6273357;22;20373;-72
2022/12/11 11:53:51;;;;;;;22.97;14.70;;;;;;;;;;6275461;22;20376;-74
2022/12/11 11:56:20;;;;;;;24.40;14.83;;;;;;;;;;6300942;22;20221;-73
2022/12/11 11:58:55;;;;;;;23.70;13.90;;;;;;;;;;6301689;22;20384;-74
2022/12/11 12:01:20;;;;;;;28.53;14.30;;;;;;;;;;6301782;22;20372;-74
2022/12/11 12:03:46;;;;;;;23.93;14.40;;;;;;;;;;6274544;22;20445;-74
2022/12/11 12:06:11;;;;;;;27.23;14.93;;;;;;;;;;6277369;22;20240;-74
2022/12/11 12:08:47;;;;;;;25.67;14.10;;;;;;;;;;6276697;22;20873;-74
2022/12/11 12:11:13;;;;;;;23.60;14.40;;;;;;;;;;6283958;22;20192;-74
2022/12/11 12:13:41;;;;;;;28.97;15.00;;;;;;;;;;6322626;22;20360;-75
2022/12/11 12:16:13;;;;;;;22.87;14.00;;;;;;;;;;6296319;22;20149;-74
2022/12/11 12:18:57;;;;;;;26.70;16.23;;;;;;;;;;6294597;22;20401;-75
2022/12/11 12:21:28;;;;;;;22.43;13.50;;;;;;;;;;6322754;22;20376;-74
2022/12/11 12:24:09;;;;;;;22.60;13.23;;;;;;;;;;6295243;22;20403;-74
2022/12/11 12:26:36;;;;;;;25.47;15.20;;;;;;;;;;6318212;22;20364;-74
2022/12/11 12:29:24;;;;;;;24.13;14.60;;;;;;;;;;6305068;22;20381;-74
2022/12/11 12:32:08;;;;;;;22.57;12.20;;;;;;;;;;6304243;22;20357;-74
2022/12/11 12:34:52;;;;;;;21.50;13.80;;;;;;;;;;6306052;22;20439;-73
2022/12/11 12:37:47;;;;;;;20.90;13.37;;;;;;;;;;6304642;22;20414;-75
2022/12/11 12:40:24;;;;;;;21.20;12.63;;;;;;;;;;6142677;22;20844;-74
2022/12/11 12:42:54;;;;;;;21.40;12.87;;;;;;;;;;6304198;22;20405;-74
2022/12/11 12:45:25;;;;;;;23.87;13.73;;;;;;;;;;6277114;22;20365;-74
2022/12/11 12:47:51;;;;;;;21.40;13.43;;;;;;;;;;6276360;22;20436;-74
2022/12/11 12:50:17;;;;;;;19.40;12.40;;;;;;;;;;6304160;22;20356;-74
2022/12/11 12:52:43;;;;;;;21.07;13.03;;;;;;;;;;6277038;22;20150;-74
2022/12/11 12:55:17;;;;;;;26.23;13.20;;;;;;;;;;6303538;22;20449;-74
2022/12/11 12:57:47;;;;;;;24.67;13.47;;;;;;;;;;6276487;22;20396;-74
2022/12/11 13:00:25;;;;;;;25.40;13.27;;;;;;;;;;6276884;22;20372;-74
2022/12/11 13:02:52;;;;;;;22.03;14.00;;;;;;;;;;6277089;22;20363;-74
2022/12/11 13:05:22;;;;;;;24.17;13.93;;;;;;;;;;6304222;22;20379;-73
2022/12/11 13:07:52;;;;;;;21.57;14.37;;;;;;;;;;6303175;22;20758;-74
2022/12/11 13:10:23;;;;;;;23.63;12.93;;;;;;;;;;6304208;22;20425;-74
2022/12/11 13:12:48;;;;;;;20.20;12.90;;;;;;;;;;6275999;22;20369;-74
2022/12/11 13:15:29;;;;;;;23.23;14.50;;;;;;;;;;6304023;22;20365;-74
2022/12/11 13:17:54;;;;;;;23.83;14.03;;;;;;;;;;6303448;22;20170;-74
2022/12/11 13:20:20;;;;;;;23.37;14.63;;;;;;;;;;6305220;22;20364;-77
2022/12/11 13:22:47;;;;;;;23.50;12.93;;;;;;;;;;6278490;22;20149;-76
2022/12/11 13:25:18;;;;;;;20.90;12.87;;;;;;;;;;6278520;22;20399;-76
2022/12/11 13:27:44;;;;;;;21.03;13.93;;;;;;;;;;6305275;22;20412;-76
2022/12/11 13:30:18;;;;;;;19.97;12.30;;;;;;;;;;6277834;22;20950;-76
2022/12/11 13:32:48;;;;;;;22.27;13.20;;;;;;;;;;6278661;22;20145;-76
2022/12/11 13:35:15;;;;;;;22.20;14.07;;;;;;;;;;6305762;22;20376;-76
2022/12/11 13:37:42;;;;;;;25.73;14.10;;;;;;;;;;6305248;22;20904;-76
2022/12/11 13:40:13;;;;;;;24.03;14.87;;;;;;;;;;6305623;22;20449;-76
2022/12/11 13:42:41;;;;;;;22.63;12.97;;;;;;;;;;6305932;22;20360;-77
2022/12/11 13:45:16;;;;;;;24.90;13.83;;;;;;;;;;6274886;22;20442;-76
2022/12/11 13:47:42;;;;;;;23.17;13.90;;;;;;;;;;6302131;22;20794;-74
2022/12/11 13:50:16;;;;;;;19.37;12.80;;;;;;;;;;6276953;22;20365;-76
2022/12/11 13:52:51;;;;;;;27.00;15.03;;;;;;;;;;6304435;22;20133;-76
2022/12/11 13:55:21;;;;;;;23.93;14.77;;;;;;;;;;6275552;22;20443;-75
2022/12/11 13:57:46;;;;;;;25.70;14.77;;;;;;;;;;6273958;22;20427;-76
2022/12/11 14:00:19;;;;;;;26.67;14.30;;;;;;;;;;6302387;22;20376;-78
2022/12/11 14:02:45;;;;;;;24.23;14.20;;;;;;;;;;6304562;22;20146;-77
2022/12/11 14:05:11;;;;;;;23.87;14.80;;;;;;;;;;6276591;22;20526;-76
2022/12/11 14:07:56;;;;;;;22.50;13.73;;;;;;;;;;6274384;22;20765;-78
2022/12/11 14:10:23;;;;;;;27.93;15.00;;;;;;;;;;6276705;22;20823;-74
2022/12/11 14:13:07;;;;;;;28.00;15.37;;;;;;;;;;6303332;22;20383;-77
2022/12/11 14:15:34;;;;;;;27.10;15.67;;;;;;;;;;6304456;22;20396;-73
2022/12/11 14:17:59;;;;;;;23.43;14.83;;;;;;;;;;6302507;22;20392;-74
2022/12/11 14:20:26;;;;;;;21.87;13.90;;;;;;;;;;6304122;22;20893;-77
2022/12/11 14:23:03;;;;;;;24.23;15.00;;;;;;;;;;6276966;22;20153;-76
2022/12/11 14:25:28;;;;;;;22.97;13.80;;;;;;;;;;6277635;22;20817;-74
2022/12/11 14:27:55;;;;;;;27.20;15.83;;;;;;;;;;6304426;22;20418;-78
2022/12/11 14:30:31;;;;;;;23.00;14.00;;;;;;;;;;6277802;22;20157;-76
2022/12/11 14:32:59;;;;;;;25.53;14.63;;;;;;;;;;6275824;22;20363;-74
2022/12/11 14:35:35;;;;;;;24.07;13.53;;;;;;;;;;6276768;22;20376;-75